createdAt,value
2023-02-16T00:02:54.455Z,13.48
2023-02-16T00:06:58.433Z,14.00
2023-02-16T00:11:18.783Z,14.20
2023-02-16T00:15:22.006Z,14.35
2023-02-16T00:19:27.832Z,13.70
2023-02-16T00:23:30.600Z,12.77
2023-02-16T00:27:33.634Z,13.27
2023-02-16T00:31:36.585Z,13.45
2023-02-16T00:35:40.827Z,13.50
2023-02-16T00:39:45.346Z,13.25
2023-02-16T00:43:48.158Z,12.40
2023-02-16T00:47:53.010Z,12.90
2023-02-16T00:51:57.368Z,12.65
2023-02-16T00:56:00.359Z,12.48
2023-02-16T01:00:09.823Z,12.05
2023-02-16T01:04:20.334Z,11.38
2023-02-16T01:08:41.804Z,12.98
2023-02-16T01:12:44.628Z,11.85
2023-02-16T01:16:47.402Z,10.70
2023-02-16T01:20:50.557Z,11.50
2023-02-16T01:24:54.662Z,12.93
2023-02-16T01:28:57.499Z,12.30
2023-02-16T01:33:00.261Z,12.88
2023-02-16T01:37:04.688Z,11.73
2023-02-16T01:41:22.627Z,12.40
2023-02-16T01:45:33.546Z,12.05
2023-02-16T01:49:36.356Z,14.02
2023-02-16T01:53:42.937Z,12.95
2023-02-16T01:57:51.073Z,13.35
2023-02-16T02:01:56.204Z,13.43
2023-02-16T02:05:59.009Z,12.47
2023-02-16T02:10:08.330Z,13.45
2023-02-16T02:14:17.173Z,12.70
2023-02-16T02:18:20.065Z,12.25
2023-02-16T02:23:20.159Z,12.30
2023-02-16T02:27:27.007Z,12.13
2023-02-16T02:31:45.580Z,11.63
2023-02-16T02:35:55.935Z,12.32
2023-02-16T02:40:06.333Z,12.02
2023-02-16T02:44:11.584Z,11.13
2023-02-16T02:48:15.051Z,11.57
2023-02-16T02:52:18.275Z,11.60
2023-02-16T02:56:39.167Z,11.15
2023-02-16T03:00:47.804Z,10.98
2023-02-16T03:04:53.186Z,11.98
2023-02-16T03:09:00.835Z,11.23
2023-02-16T03:13:05.959Z,10.80
2023-02-16T03:17:31.216Z,10.83
2023-02-16T03:21:52.805Z,9.82
2023-02-16T03:26:13.634Z,9.80
2023-02-16T03:30:19.569Z,9.80
2023-02-16T03:34:24.366Z,9.45
2023-02-16T03:38:27.476Z,9.20
2023-02-16T03:42:30.350Z,8.57
2023-02-16T03:46:33.254Z,8.30
2023-02-16T03:50:37.474Z,9.10
2023-02-16T03:54:40.280Z,9.10
2023-02-16T03:58:43.150Z,9.63
2023-02-16T04:02:45.909Z,8.48
2023-02-16T04:06:50.028Z,7.75
2023-02-16T04:10:54.213Z,8.40
2023-02-16T04:14:57.007Z,8.18
2023-02-16T04:18:59.804Z,7.47
2023-02-16T04:23:04.261Z,8.82
2023-02-16T04:27:07.102Z,7.63
2023-02-16T04:31:10.003Z,7.97
2023-02-16T04:35:13.128Z,8.05
2023-02-16T04:39:17.507Z,7.70
2023-02-16T04:43:20.297Z,7.32
2023-02-16T04:47:25.841Z,7.60
2023-02-16T04:51:28.732Z,7.65
2023-02-16T04:55:32.856Z,8.25
2023-02-16T04:59:36.058Z,7.78
2023-02-16T05:03:38.850Z,7.57
2023-02-16T05:07:41.632Z,7.00
2023-02-16T05:12:03.061Z,7.10
2023-02-16T05:16:06.587Z,6.22
2023-02-16T05:20:10.214Z,7.93
2023-02-16T05:24:13.293Z,6.85
2023-02-16T05:28:17.521Z,6.93
2023-02-16T05:32:21.073Z,6.32
2023-02-16T05:36:24.878Z,6.22
2023-02-16T05:40:27.712Z,6.32
2023-02-16T05:44:31.941Z,8.40
2023-02-16T05:48:34.788Z,6.53
2023-02-16T05:52:37.652Z,8.02
2023-02-16T05:56:40.428Z,7.40
2023-02-16T06:00:44.554Z,6.47
2023-02-16T06:04:47.357Z,9.93
2023-02-16T06:08:50.339Z,9.18
2023-02-16T06:12:53.125Z,7.50
2023-02-16T06:16:58.736Z,6.78
2023-02-16T06:21:01.684Z,7.25
2023-02-16T06:25:05.006Z,6.05
2023-02-16T06:29:07.900Z,6.38
2023-02-16T06:33:12.090Z,6.80
2023-02-16T06:37:14.945Z,6.55
2023-02-16T06:41:31.195Z,6.93
2023-02-16T06:49:38.280Z,6.78
2023-02-16T06:53:41.290Z,7.82
2023-02-16T06:57:44.125Z,7.70
2023-02-16T07:01:46.921Z,7.95
2023-02-16T07:05:51.655Z,7.68
2023-02-16T07:09:54.568Z,7.72
2023-02-16T07:13:57.367Z,6.90
2023-02-16T07:18:00.172Z,7.35
2023-02-16T07:22:05.378Z,7.68
2023-02-16T07:26:08.527Z,8.43
2023-02-16T07:30:12.426Z,8.20
2023-02-16T07:34:15.294Z,7.80
2023-02-16T07:38:19.497Z,8.85
2023-02-16T07:42:22.495Z,10.18
2023-02-16T07:46:27.660Z,9.50
2023-02-16T07:50:30.463Z,7.43
2023-02-16T07:54:34.896Z,7.93
2023-02-16T07:58:38.104Z,8.30
2023-02-16T08:02:41.402Z,7.50
2023-02-16T08:06:45.924Z,7.43
2023-02-16T08:10:50.077Z,7.68
2023-02-16T08:14:52.934Z,7.50
2023-02-16T08:18:57.753Z,8.00
2023-02-16T08:23:00.533Z,8.80
2023-02-16T08:27:06.286Z,8.30
2023-02-16T08:31:10.123Z,8.20
2023-02-16T08:35:13.568Z,7.13
2023-02-16T08:39:17.993Z,7.25
2023-02-16T08:43:22.525Z,7.75
2023-02-16T08:47:25.288Z,7.22
2023-02-16T08:51:29.255Z,7.75
2023-02-16T08:55:32.003Z,7.05
2023-02-16T08:59:36.131Z,7.75
2023-02-16T09:03:41.225Z,6.88
2023-02-16T09:07:44.064Z,6.53
2023-02-16T09:11:47.008Z,6.78
2023-02-16T09:15:51.576Z,7.03
2023-02-16T09:19:54.332Z,7.35
2023-02-16T09:23:58.203Z,7.18
2023-02-16T09:28:01.062Z,7.40
2023-02-16T09:32:05.295Z,7.30
2023-02-16T09:36:10.665Z,7.28
2023-02-16T09:40:15.113Z,8.23
2023-02-16T09:44:25.672Z,7.30
2023-02-16T09:48:36.313Z,7.28
2023-02-16T09:52:41.771Z,7.38
2023-02-16T09:56:50.435Z,8.10
2023-02-16T10:00:57.371Z,7.75
2023-02-16T10:05:18.270Z,8.25
2023-02-16T10:09:22.049Z,8.10
2023-02-16T10:13:34.712Z,7.97
2023-02-16T10:17:45.240Z,7.60
2023-02-16T10:21:52.531Z,7.45
2023-02-16T10:26:00.641Z,7.72
2023-02-16T10:30:03.520Z,7.78
2023-02-16T10:34:23.412Z,7.85
2023-02-16T10:38:35.723Z,7.45
2023-02-16T10:42:43.842Z,7.50
2023-02-16T10:46:49.436Z,7.25
2023-02-16T10:50:58.620Z,7.35
2023-02-16T10:55:02.829Z,6.88
2023-02-16T10:59:08.279Z,6.97
2023-02-16T11:03:15.444Z,7.20
2023-02-16T11:07:20.148Z,6.65
2023-02-16T11:11:26.321Z,7.47
2023-02-16T11:15:29.529Z,6.68
2023-02-16T11:19:33.493Z,6.43
2023-02-16T11:23:37.718Z,6.18
2023-02-16T11:27:52.254Z,6.22
2023-02-16T11:31:55.669Z,5.13
2023-02-16T11:35:58.844Z,5.63
2023-02-16T11:40:05.954Z,4.70
2023-02-16T11:44:27.109Z,5.03
2023-02-16T11:48:32.586Z,5.28
2023-02-16T11:52:35.529Z,5.30
2023-02-16T11:56:39.299Z,5.25
2023-02-16T12:00:57.495Z,4.90
2023-02-16T12:05:19.377Z,5.57
2023-02-16T12:09:31.239Z,6.03
2023-02-16T12:13:39.685Z,5.35
2023-02-16T12:17:56.816Z,5.75
2023-02-16T12:22:06.035Z,5.45
2023-02-16T12:26:27.158Z,5.65
2023-02-16T12:30:41.138Z,5.95
2023-02-16T12:34:56.894Z,5.83
2023-02-16T12:39:13.231Z,5.90
2023-02-16T12:43:32.440Z,6.35
2023-02-16T12:47:40.709Z,6.20
2023-02-16T12:51:49.853Z,5.97
2023-02-16T12:55:56.514Z,5.60
2023-02-16T13:00:03.850Z,5.60
2023-02-16T13:04:15.258Z,6.18
2023-02-16T13:08:30.060Z,6.43
2023-02-16T13:12:37.218Z,5.47
2023-02-16T13:16:45.393Z,5.25
2023-02-16T13:20:50.916Z,5.10
2023-02-16T13:25:20.997Z,5.72
2023-02-16T13:29:41.326Z,5.70
2023-02-16T13:34:04.029Z,6.13
2023-02-16T13:38:28.351Z,5.00
2023-02-16T13:42:50.913Z,4.65
2023-02-16T13:46:55.272Z,4.65
2023-02-16T13:51:00.739Z,4.65
2023-02-16T13:55:05.843Z,4.97
2023-02-16T13:59:57.536Z,4.20
2023-02-16T14:04:02.842Z,4.93
2023-02-16T14:08:27.437Z,4.73
2023-02-16T14:12:34.265Z,4.38
2023-02-16T14:16:37.164Z,4.50
2023-02-16T14:20:41.377Z,4.25
2023-02-16T14:24:44.734Z,4.45
2023-02-16T14:29:12.481Z,3.88
2023-02-16T14:33:23.370Z,4.25
2023-02-16T14:37:38.016Z,7.70
2023-02-16T14:41:41.550Z,7.03
2023-02-16T14:46:03.298Z,5.30
2023-02-16T14:50:23.566Z,4.63
2023-02-16T14:55:03.424Z,4.78
2023-02-16T14:59:13.312Z,5.43
2023-02-16T15:03:18.629Z,4.35
2023-02-16T15:07:22.633Z,4.55
2023-02-16T15:11:32.331Z,4.45
2023-02-16T15:15:46.898Z,4.53
2023-02-16T15:19:51.434Z,3.97
2023-02-16T15:23:56.815Z,4.18
2023-02-16T15:28:04.339Z,4.13
2023-02-16T15:32:08.248Z,3.40
2023-02-16T15:36:13.490Z,3.63
2023-02-16T15:40:26.496Z,3.80
2023-02-16T15:44:34.235Z,3.35
2023-02-16T15:48:38.185Z,3.67
2023-02-16T15:52:41.077Z,3.33
2023-02-16T15:56:46.085Z,5.30
2023-02-16T16:00:50.296Z,4.18
2023-02-16T16:04:56.113Z,4.10
2023-02-16T16:08:59.265Z,4.95
2023-02-16T16:13:06.280Z,4.22
2023-02-16T16:17:16.551Z,4.38
2023-02-16T16:21:23.251Z,4.55
2023-02-16T16:25:32.662Z,4.53
2023-02-16T16:29:40.968Z,3.83
2023-02-16T16:33:55.873Z,4.97
2023-02-16T16:37:58.759Z,3.30
2023-02-16T16:42:26.185Z,3.38
2023-02-16T16:46:30.982Z,3.30
2023-02-16T16:50:39.408Z,4.25
2023-02-16T16:54:42.623Z,5.60
2023-02-16T16:58:49.434Z,4.15
2023-02-16T17:02:52.732Z,44.65
2023-02-16T17:06:56.841Z,21.42
2023-02-16T17:11:00.007Z,17.60
2023-02-16T17:15:03.737Z,9.70
2023-02-16T17:19:06.504Z,6.95
2023-02-16T17:23:12.940Z,4.95
2023-02-16T17:27:15.710Z,4.28
2023-02-16T17:31:18.613Z,4.60
2023-02-16T17:35:21.508Z,4.43
2023-02-16T17:39:25.813Z,4.75
2023-02-16T17:43:29.104Z,4.00
2023-02-16T17:47:31.880Z,4.25
2023-02-16T17:51:36.367Z,4.63
2023-02-16T17:55:40.763Z,4.47
2023-02-16T17:59:43.878Z,5.57
2023-02-16T18:03:46.793Z,5.03
2023-02-16T18:07:49.602Z,6.05
2023-02-16T18:11:53.845Z,5.72
2023-02-16T18:15:57.043Z,5.38
2023-02-16T18:19:59.802Z,6.15
2023-02-16T18:24:02.592Z,7.00
2023-02-16T18:28:06.826Z,8.48
2023-02-16T18:32:09.643Z,9.07
2023-02-16T18:36:12.483Z,7.57
2023-02-16T18:40:17.718Z,8.93
2023-02-16T18:44:21.881Z,7.13
2023-02-16T18:48:24.752Z,6.80
2023-02-16T18:52:27.585Z,6.28
2023-02-16T18:56:30.390Z,6.28
2023-02-16T19:00:34.578Z,7.18
2023-02-16T19:04:37.477Z,6.72
2023-02-16T19:08:40.317Z,7.18
2023-02-16T19:12:43.172Z,6.82
2023-02-16T19:16:47.717Z,7.18
2023-02-16T19:20:50.587Z,6.60
2023-02-16T19:24:53.381Z,6.22
2023-02-16T19:28:56.174Z,6.80
2023-02-16T19:33:00.368Z,6.50
2023-02-16T19:37:03.388Z,7.25
2023-02-16T19:41:09.994Z,7.38
2023-02-16T19:45:13.057Z,9.18
2023-02-16T19:49:17.205Z,6.53
2023-02-16T19:53:19.999Z,7.68
2023-02-16T19:57:22.812Z,6.07
2023-02-16T20:01:27.908Z,5.93
2023-02-16T20:05:32.125Z,5.75
2023-02-16T20:09:36.116Z,5.57
2023-02-16T20:13:39.627Z,5.80
2023-02-16T20:17:42.527Z,5.38
2023-02-16T20:21:46.784Z,5.68
2023-02-16T20:25:49.539Z,5.88
2023-02-16T20:29:52.357Z,4.85
2023-02-16T20:33:56.094Z,4.90
2023-02-16T20:38:00.278Z,5.38
2023-02-16T20:42:03.104Z,5.57
2023-02-16T20:46:08.040Z,6.43
2023-02-16T20:50:12.027Z,5.72
2023-02-16T20:54:16.179Z,5.28
2023-02-16T20:58:18.942Z,6.60
2023-02-16T21:02:21.781Z,6.07
2023-02-16T21:06:25.675Z,5.72
2023-02-16T21:10:29.908Z,5.82
2023-02-16T21:14:32.705Z,5.50
2023-02-16T21:18:36.867Z,6.07
2023-02-16T21:22:40.570Z,5.95
2023-02-16T21:26:44.825Z,4.80
2023-02-16T21:30:47.573Z,5.75
2023-02-16T21:34:50.338Z,5.38
2023-02-16T21:38:53.500Z,5.00
2023-02-16T21:42:57.654Z,5.93
2023-02-16T21:47:17.704Z,8.93
2023-02-16T21:51:24.069Z,5.50
2023-02-16T21:55:44.423Z,6.28
2023-02-16T21:59:48.543Z,7.47
2023-02-16T22:03:56.020Z,5.70
2023-02-16T22:07:59.370Z,6.00
2023-02-16T22:12:02.302Z,5.22
2023-02-16T22:16:12.444Z,4.20
2023-02-16T22:20:15.382Z,5.43
2023-02-16T22:24:20.180Z,5.25
2023-02-16T22:28:22.982Z,5.28
2023-02-16T22:32:27.220Z,5.38
2023-02-16T22:36:30.480Z,5.05
2023-02-16T22:40:33.365Z,5.07
2023-02-16T22:44:36.227Z,4.97
2023-02-16T22:48:40.889Z,5.00
2023-02-16T22:52:43.734Z,5.38
2023-02-16T22:56:46.583Z,5.45
2023-02-16T23:00:50.182Z,5.03
2023-02-16T23:04:58.557Z,5.30
2023-02-16T23:09:03.497Z,4.93
2023-02-16T23:13:07.565Z,5.97
2023-02-16T23:17:10.426Z,5.00
2023-02-16T23:21:18.146Z,5.38
2023-02-16T23:25:36.196Z,5.55
2023-02-16T23:29:39.014Z,5.15
2023-02-16T23:33:42.059Z,5.40
2023-02-16T23:37:47.638Z,5.30
2023-02-16T23:41:50.529Z,4.87
2023-02-16T23:45:53.996Z,5.28
2023-02-16T23:49:56.862Z,5.97
2023-02-16T23:54:01.073Z,5.00
2023-02-16T23:58:03.951Z,5.05
